Главная страница
METAR-TAF:

METAR-TAF

Аэропорты :

Грозный, Россия

широта: 43-23-18N, долгота: 045-41-59E, высота над уровнем моря: 167 м

Текущие метеонаблюдения

Эта сводка был подготовлена 41 минут назад, в 04:30 UTC
Ветер 4 Узел от восточно-юго-восточный
Температура 13°C
Влажность 94%
Давление 1016 hPa
Видимость: 3600 м
Сплошная облачность на высоте 400 фута
дымка

METAR: URMG 220430Z 12002MPS 3600 BR OVC004 13/12 Q1016 R26/000070 NOSIG RMK MT OBSC OBST OBSC QFE747/0997

Время: 08:11 (05:11 UTC)

Прогноз

Эта сводка был подготовлена 3 часа и 11 минут назад, в 02:00 UTC
Прогноз действительный с 22-го 03 UTC до 22-го 12 UTC
Ветер 6 Узел от восточный с порывами до 16 Узел
Видимость: 3100 м
Сплошная облачность на высоте 400 фута
дымка
временами
С 22-го 03 UTC до 22-го 05 UTC
Ветер 4 Узел переменных направлений
Видимость: 0400 м
Сплошная облачность на высоте 200 фута
туман

TAF: URMG 220200Z 2203/2212 09003G08MPS 3100 BR OVC004 TEMPO 2203/2205 VRB02MPS 0400 FG OVC002

Метеонаблюдения и прогнозы для более 4000 аэропортов (сводки METAR и TAF).

Имеющиеся станции представлены на карте желтыми и красными точками.

Чтобы увидеть название станции, наведите на нее мышь.

Затем щелкните, чтобы увидеть метеонаблюдения и метеопрогнозы.

Управление картой: чтобы увеличить масштаб, щелкните зеленые кнопки с черным крестиком; чтобы уменьшить масштаб, щелкните зеленую кнопку с тире; для просмотра соседних карт щелкайте зеленые стрелки.


METAR-TAF: